SSH weather

Sharm El Sheikh International Airport
Sharm el-Sheikh, South Sinai Governorate, Egypt

Public forecast

Using degrees Celsius for public forecast. Weather courtesy of forecast.io.

METAR (pilot weather report)

Retrieved 2019/04/24 23:00 UTC (59 minutes ago):

HESH 242300Z 36014KT CAVOK 33/16 Q1015 NOSIG

TAF (pilot weather forecast)

Retrieved 2019/04/24 18:42 UTC (5 hours ago):

TAF HESH 241700Z 2418/2524 01010KT CAVOK